Time;durP1;ratioP1;P1;durP2;ratioP2;P2;SDS_P1;SDS_P2;PMS_P1;PMS_P2;Temp;Humidity;BMP_temperature;BMP_pressure;BME280_temperature;BME280_humidity;BME280_pressure;Samples;Min_cycle;Max_cycle;Signal;HPM_P1;HPM_P2
2022/02/23 00:01:31;;;;;;;28.77;9.30;;;6.10;98.10;;;;;;5084690;28;20199;-44
2022/02/23 00:03:59;;;;;;;20.90;7.83;;;6.10;98.00;;;;;;5083594;28;20670;-47
2022/02/23 00:06:28;;;;;;;21.03;7.63;;;6.10;98.10;;;;;;5083274;28;20253;-46
2022/02/23 00:08:55;;;;;;;19.27;7.33;;;6.00;98.20;;;;;;5084575;28;20237;-44
2022/02/23 00:11:23;;;;;;;19.17;7.27;;;6.00;98.30;;;;;;5086728;28;20656;-44
2022/02/23 00:13:50;;;;;;;17.33;6.90;;;6.10;98.40;;;;;;5089035;28;20192;-44
2022/02/23 00:16:17;;;;;;;13.63;6.23;;;6.00;98.40;;;;;;5085476;28;21189;-46
2022/02/23 00:18:45;;;;;;;11.17;5.00;;;6.00;98.40;;;;;;5089660;28;20197;-46
2022/02/23 00:21:13;;;;;;;10.07;4.63;;;6.00;98.40;;;;;;5090012;28;20206;-45
2022/02/23 00:23:41;;;;;;;16.80;4.77;;;6.10;98.60;;;;;;5067069;28;20304;-46
2022/02/23 00:26:08;;;;;;;11.37;5.23;;;6.10;98.50;;;;;;5068295;28;20203;-47
2022/02/23 00:28:35;;;;;;;16.10;6.07;;;6.10;98.40;;;;;;5082449;28;20201;-48
2022/02/23 00:31:02;;;;;;;12.23;4.87;;;6.10;98.40;;;;;;5087942;28;20200;-45
2022/02/23 00:33:29;;;;;;;16.60;5.53;;;6.10;98.50;;;;;;5077586;28;20246;-48
2022/02/23 00:35:57;;;;;;;13.33;4.77;;;6.10;98.40;;;;;;5067804;28;20627;-50
2022/02/23 00:38:24;;;;;;;11.20;4.60;;;6.10;98.50;;;;;;5082129;28;20231;-49
2022/02/23 00:40:52;;;;;;;11.00;4.90;;;6.10;98.60;;;;;;5084083;28;20213;-45
2022/02/23 00:43:19;;;;;;;11.00;4.33;;;6.10;98.70;;;;;;5088700;28;20195;-46
2022/02/23 00:45:46;;;;;;;11.47;4.50;;;6.10;98.80;;;;;;5068579;28;20563;-46
2022/02/23 00:48:13;;;;;;;13.13;5.13;;;6.10;98.80;;;;;;5086004;28;20746;-46
2022/02/23 00:50:40;;;;;;;11.97;5.20;;;6.00;98.90;;;;;;5088159;28;20216;-48
2022/02/23 00:53:08;;;;;;;13.47;5.20;;;6.00;99.00;;;;;;5085013;28;20211;-45
2022/02/23 00:55:35;;;;;;;12.20;5.30;;;6.00;99.20;;;;;;5086564;28;20589;-47
2022/02/23 00:58:03;;;;;;;13.00;4.87;;;6.00;99.30;;;;;;5081552;28;20222;-51
2022/02/23 01:00:31;;;;;;;13.33;5.23;;;6.00;99.40;;;;;;5082933;28;20555;-47
2022/02/23 01:02:58;;;;;;;13.30;5.93;;;6.00;99.50;;;;;;5085821;28;20198;-49
2022/02/23 01:05:25;;;;;;;14.63;5.60;;;6.00;99.60;;;;;;5067869;28;20731;-49
2022/02/23 01:07:52;;;;;;;11.70;4.83;;;6.00;99.70;;;;;;5085478;28;20198;-43
2022/02/23 01:10:19;;;;;;;14.33;4.90;;;6.00;99.80;;;;;;5085384;28;20312;-46
2022/02/23 01:12:47;;;;;;;12.90;4.83;;;6.00;99.90;;;;;;5079242;28;20195;-43
2022/02/23 01:15:16;;;;;;;7.17;3.70;;;6.00;99.90;;;;;;5086381;28;20205;-46
2022/02/23 01:17:43;;;;;;;13.80;4.77;;;6.10;99.90;;;;;;5079752;28;20188;-43
2022/02/23 01:20:11;;;;;;;13.03;5.53;;;6.10;99.90;;;;;;5088142;28;20206;-43
2022/02/23 01:22:38;;;;;;;13.90;5.53;;;6.10;99.90;;;;;;5091385;28;20215;-43
2022/02/23 01:25:06;;;;;;;15.93;5.40;;;6.10;99.90;;;;;;5084416;28;20227;-46
2022/02/23 01:27:34;;;;;;;11.67;4.97;;;6.10;99.90;;;;;;5081458;28;20250;-43
2022/02/23 01:30:01;;;;;;;11.87;5.17;;;6.10;99.90;;;;;;5078982;28;20209;-45
2022/02/23 01:32:29;;;;;;;14.50;5.10;;;6.20;99.90;;;;;;5080279;28;20260;-43
2022/02/23 01:34:57;;;;;;;12.57;4.60;;;6.20;99.90;;;;;;5082284;28;20230;-46
2022/02/23 01:37:24;;;;;;;13.27;4.80;;;6.20;99.90;;;;;;5085922;28;20242;-46
2022/02/23 01:39:51;;;;;;;14.47;4.77;;;6.20;99.90;;;;;;5080200;28;20208;-45
2022/02/23 01:42:18;;;;;;;13.60;4.80;;;6.20;99.90;;;;;;5087631;28;20323;-49
2022/02/23 01:44:45;;;;;;;15.50;5.50;;;6.20;99.90;;;;;;5058940;28;20240;-46
2022/02/23 01:47:13;;;;;;;15.23;4.97;;;6.20;99.90;;;;;;5085800;28;20292;-47
2022/02/23 01:49:41;;;;;;;11.67;4.63;;;6.20;99.90;;;;;;5089136;28;20212;-47
2022/02/23 01:52:08;;;;;;;12.83;4.20;;;6.20;99.90;;;;;;5091452;28;20195;-46
2022/02/23 01:54:35;;;;;;;13.77;4.93;;;6.20;99.90;;;;;;5086343;28;20496;-47
2022/02/23 01:57:03;;;;;;;7.93;3.80;;;6.20;99.90;;;;;;5090261;28;20310;-48
2022/02/23 01:59:30;;;;;;;10.23;4.30;;;6.20;99.90;;;;;;5088355;28;20221;-47
2022/02/23 02:01:57;;;;;;;6.23;3.50;;;6.10;99.90;;;;;;5083661;28;20200;-46
2022/02/23 02:04:25;;;;;;;10.07;4.27;;;6.10;99.90;;;;;;5090690;28;20248;-47
2022/02/23 02:06:54;;;;;;;8.80;3.93;;;6.10;99.90;;;;;;5091597;28;20208;-49
2022/02/23 02:09:21;;;;;;;12.20;4.20;;;6.10;99.90;;;;;;5087769;28;20678;-48
2022/02/23 02:11:48;;;;;;;10.07;3.87;;;6.10;99.90;;;;;;5087009;28;20663;-48
2022/02/23 02:14:15;;;;;;;11.63;4.10;;;6.10;99.90;;;;;;5084064;28;20223;-48
2022/02/23 02:16:42;;;;;;;11.20;3.80;;;6.10;99.90;;;;;;5090568;28;20185;-46
2022/02/23 03:03:59;;;;;;;13.73;5.07;;;4.50;99.90;;;;;;5067621;27;1691729;-48
2022/02/23 03:06:26;;;;;;;12.10;4.57;;;5.70;99.90;;;;;;5106015;28;20220;-45
2022/02/23 03:08:55;;;;;;;12.23;4.77;;;5.70;99.90;;;;;;5105060;28;20580;-59
2022/02/23 03:11:23;;;;;;;9.37;3.93;;;5.70;99.90;;;;;;5103122;28;20214;-60
2022/02/23 03:13:51;;;;;;;12.57;4.50;;;5.80;99.90;;;;;;5105590;28;20217;-45
2022/02/23 03:16:18;;;;;;;9.87;4.20;;;5.90;99.90;;;;;;5086484;28;20198;-59
2022/02/23 03:18:46;;;;;;;11.97;4.97;;;5.90;99.90;;;;;;5105278;28;20555;-59
2022/02/23 03:21:15;;;;;;;8.60;4.00;;;6.00;99.90;;;;;;5105493;28;20206;-59
2022/02/23 03:23:42;;;;;;;10.93;3.77;;;6.00;99.90;;;;;;5086900;28;20286;-58
2022/02/23 03:26:10;;;;;;;4.27;2.63;;;6.00;99.90;;;;;;5102789;28;20474;-58
2022/02/23 03:28:38;;;;;;;7.83;3.40;;;6.10;99.90;;;;;;5105463;28;20222;-59
2022/02/23 03:31:06;;;;;;;9.00;3.57;;;6.10;99.90;;;;;;5104823;28;20188;-57
2022/02/23 03:33:34;;;;;;;9.30;4.07;;;6.20;99.90;;;;;;5105259;28;20211;-57
2022/02/23 03:36:01;;;;;;;4.47;2.80;;;6.10;99.90;;;;;;5104783;28;20215;-57
2022/02/23 03:38:30;;;;;;;8.47;3.10;;;6.20;99.90;;;;;;5105125;28;20232;-59
2022/02/23 03:40:58;;;;;;;9.50;3.73;;;6.20;99.90;;;;;;5102527;28;20199;-59
2022/02/23 03:43:25;;;;;;;9.30;3.33;;;6.20;99.90;;;;;;5105189;28;20191;-59
2022/02/23 03:45:52;;;;;;;6.63;3.00;;;6.20;99.90;;;;;;5085902;28;20199;-59
2022/02/23 03:48:19;;;;;;;5.47;3.40;;;6.20;99.90;;;;;;5085281;28;20249;-59
2022/02/23 03:50:46;;;;;;;7.47;3.07;;;6.20;99.90;;;;;;5065766;28;20287;-59
2022/02/23 03:53:13;;;;;;;8.53;3.73;;;6.20;99.90;;;;;;5065703;28;20216;-52
2022/02/23 03:55:42;;;;;;;5.00;3.17;;;6.20;99.90;;;;;;5081940;28;20218;-53
2022/02/23 03:58:10;;;;;;;8.57;3.80;;;6.10;99.90;;;;;;5084234;28;20701;-53
2022/02/23 04:00:37;;;;;;;7.93;3.50;;;6.10;99.90;;;;;;5083917;28;20192;-49
2022/02/23 04:03:05;;;;;;;4.70;3.00;;;6.10;99.90;;;;;;5080917;28;20225;-51
2022/02/23 04:05:32;;;;;;;7.93;3.27;;;6.10;99.90;;;;;;5070198;28;20201;-53
2022/02/23 04:07:59;;;;;;;8.30;3.90;;;6.10;99.90;;;;;;5052422;28;20581;-52
2022/02/23 04:10:26;;;;;;;15.43;5.00;;;6.10;99.90;;;;;;5068897;28;20271;-53
2022/02/23 04:12:55;;;;;;;9.50;4.33;;;6.10;99.90;;;;;;5052015;28;20220;-51
2022/02/23 04:15:22;;;;;;;7.73;3.77;;;6.10;99.90;;;;;;5070028;28;20560;-53
2022/02/23 04:17:49;;;;;;;6.87;3.60;;;6.10;99.90;;;;;;5052011;28;20549;-53
2022/02/23 04:20:16;;;;;;;6.67;3.17;;;6.10;99.90;;;;;;5051916;28;20293;-51
2022/02/23 04:22:45;;;;;;;5.10;3.03;;;6.00;99.90;;;;;;5070029;28;20215;-53
2022/02/23 04:25:12;;;;;;;2.83;2.53;;;6.10;99.90;;;;;;5069980;28;20219;-50
2022/02/23 04:27:40;;;;;;;6.17;3.00;;;6.10;99.90;;;;;;5068528;28;20192;-49
2022/02/23 04:30:09;;;;;;;4.60;2.63;;;6.10;99.90;;;;;;5070651;28;20211;-47
2022/02/23 04:32:36;;;;;;;3.90;2.27;;;6.20;99.90;;;;;;5052007;28;20580;-49
2022/02/23 04:35:03;;;;;;;4.80;2.67;;;6.20;99.90;;;;;;5070779;28;20200;-52
2022/02/23 04:37:31;;;;;;;5.60;2.80;;;6.30;99.90;;;;;;5070251;28;20220;-48
2022/02/23 04:40:00;;;;;;;4.03;2.30;;;6.30;99.90;;;;;;5070239;28;20569;-47
2022/02/23 04:42:27;;;;;;;4.37;2.47;;;6.30;99.90;;;;;;5068195;28;20286;-50
2022/02/23 04:45:00;;;;;;;6.00;2.20;;;6.30;99.90;;;;;;5070641;28;20195;-50
2022/02/23 04:47:30;;;;;;;2.77;1.80;;;6.40;99.90;;;;;;5070060;28;20230;-51
2022/02/23 04:49:57;;;;;;;1.80;1.43;;;6.50;99.90;;;;;;5070096;28;20638;-50
2022/02/23 04:52:25;;;;;;;1.67;1.40;;;6.60;99.90;;;;;;5069425;28;20201;-49
2022/02/23 04:54:53;;;;;;;2.73;1.03;;;6.60;99.90;;;;;;5068536;28;20569;-52
2022/02/23 04:57:21;;;;;;;1.57;1.20;;;6.70;99.90;;;;;;5066102;28;20223;-50
2022/02/23 04:59:48;;;;;;;1.47;1.10;;;6.80;99.90;;;;;;5071039;28;20201;-51
2022/02/23 05:02:15;;;;;;;1.17;1.07;;;6.90;99.90;;;;;;5070641;28;20307;-50
2022/02/23 05:04:44;;;;;;;2.77;1.20;;;6.90;99.90;;;;;;5071493;28;20178;-52
2022/02/23 05:07:11;;;;;;;4.00;1.50;;;7.00;99.90;;;;;;5070243;28;20201;-52
2022/02/23 05:09:38;;;;;;;1.20;1.10;;;7.00;99.90;;;;;;5052853;28;20675;-54
2022/02/23 05:12:07;;;;;;;1.60;1.03;;;7.00;99.90;;;;;;5050003;28;20236;-48
2022/02/23 05:14:34;;;;;;;3.27;1.20;;;7.10;99.90;;;;;;5070443;28;20243;-51
2022/02/23 05:17:02;;;;;;;3.57;1.07;;;7.10;99.90;;;;;;5069689;28;20197;-52
2022/02/23 05:19:31;;;;;;;4.27;1.50;;;7.20;99.90;;;;;;5070416;28;20198;-51
2022/02/23 05:22:00;;;;;;;5.10;1.37;;;7.20;99.90;;;;;;5069515;28;20192;-52
2022/02/23 05:24:28;;;;;;;5.13;1.60;;;7.30;99.90;;;;;;5052898;28;20294;-53
2022/02/23 05:26:55;;;;;;;4.60;1.50;;;7.30;99.90;;;;;;5087706;28;20280;-51
2022/02/23 05:29:23;;;;;;;10.90;2.03;;;7.30;99.90;;;;;;5090682;28;20197;-50
2022/02/23 05:31:50;;;;;;;9.10;2.00;;;7.40;99.90;;;;;;5089811;28;20196;-54
2022/02/23 05:34:17;;;;;;;9.20;2.47;;;7.40;99.90;;;;;;5090897;28;20688;-53
2022/02/23 05:36:44;;;;;;;7.83;2.43;;;7.40;99.90;;;;;;5090205;28;20630;-52
2022/02/23 05:39:13;;;;;;;9.40;2.20;;;7.50;99.90;;;;;;5090572;28;20188;-53
2022/02/23 05:41:40;;;;;;;11.53;2.70;;;7.50;99.90;;;;;;5087601;28;20196;-49
2022/02/23 05:44:07;;;;;;;16.83;3.10;;;7.60;99.90;;;;;;5090674;28;20269;-50
2022/02/23 05:46:34;;;;;;;11.47;2.13;;;7.60;99.90;;;;;;5090103;28;20197;-49
2022/02/23 05:49:02;;;;;;;9.40;2.10;;;7.60;99.90;;;;;;5090614;28;20193;-49
2022/02/23 05:51:31;;;;;;;10.53;2.40;;;7.60;99.90;;;;;;5089178;28;20207;-46
2022/02/23 05:53:59;;;;;;;11.20;2.13;;;7.60;99.90;;;;;;5090380;28;20558;-49
2022/02/23 05:56:28;;;;;;;10.43;1.93;;;7.70;99.90;;;;;;5087609;28;20188;-51
2022/02/23 05:58:56;;;;;;;9.03;2.30;;;7.70;99.90;;;;;;5090543;28;20196;-50
2022/02/23 06:01:23;;;;;;;9.93;2.20;;;7.70;99.90;;;;;;5071037;28;20414;-48
2022/02/23 06:03:50;;;;;;;12.00;2.67;;;7.70;99.90;;;;;;5090064;28;20224;-46
2022/02/23 06:06:17;;;;;;;7.80;2.50;;;7.70;99.90;;;;;;5071623;28;20837;-44
2022/02/23 06:08:45;;;;;;;8.93;2.10;;;7.70;99.90;;;;;;5089964;28;20184;-50
2022/02/23 06:11:13;;;;;;;9.90;2.37;;;7.70;99.90;;;;;;5068965;28;20262;-50
2022/02/23 06:13:42;;;;;;;12.23;2.73;;;7.70;99.90;;;;;;5071666;28;20239;-50
2022/02/23 06:16:09;;;;;;;15.17;3.07;;;7.70;99.90;;;;;;5089312;28;20275;-48
2022/02/23 06:18:36;;;;;;;8.00;2.30;;;7.80;99.90;;;;;;5089703;28;20665;-45
2022/02/23 06:21:04;;;;;;;6.23;2.30;;;7.80;99.90;;;;;;5071279;28;20565;-46
2022/02/23 06:23:33;;;;;;;14.87;2.60;;;7.80;99.90;;;;;;5089561;28;20223;-45
2022/02/23 06:26:00;;;;;;;4.43;2.13;;;7.80;99.90;;;;;;5088194;28;20636;-48
2022/02/23 06:28:27;;;;;;;8.97;2.57;;;7.80;99.90;;;;;;5070259;28;20204;-46
2022/02/23 06:30:55;;;;;;;12.63;2.90;;;7.80;99.90;;;;;;5089406;28;20193;-45
2022/02/23 06:33:25;;;;;;;17.40;2.50;;;7.80;99.90;;;;;;5071233;28;20216;-48
2022/02/23 06:35:53;;;;;;;17.00;3.10;;;7.80;99.90;;;;;;5089582;28;20568;-48
2022/02/23 06:38:20;;;;;;;9.57;3.00;;;7.80;99.90;;;;;;5070948;28;20204;-45
2022/02/23 06:40:47;;;;;;;11.07;2.70;;;7.90;99.90;;;;;;5088843;28;20193;-44
2022/02/23 06:43:16;;;;;;;8.30;2.40;;;7.90;99.90;;;;;;5088703;28;20174;-50
2022/02/23 06:45:45;;;;;;;9.83;2.57;;;7.90;99.90;;;;;;5089290;28;20627;-49
2022/02/23 06:48:13;;;;;;;11.47;2.40;;;7.90;99.90;;;;;;5088930;28;20635;-48
2022/02/23 06:50:40;;;;;;;17.97;3.30;;;7.90;99.90;;;;;;5089278;28;20246;-47
2022/02/23 06:53:08;;;;;;;14.37;2.87;;;7.90;99.90;;;;;;5088908;28;20200;-46
2022/02/23 06:55:35;;;;;;;16.40;3.20;;;7.90;99.90;;;;;;5087809;28;20589;-47
2022/02/23 06:58:03;;;;;;;8.13;2.57;;;7.90;99.90;;;;;;5088429;28;20238;-48
2022/02/23 07:00:30;;;;;;;17.77;3.03;;;7.90;99.90;;;;;;5089414;28;20195;-47
2022/02/23 07:02:57;;;;;;;13.37;2.87;;;7.90;99.90;;;;;;5089141;28;20538;-46
2022/02/23 07:05:26;;;;;;;14.47;3.07;;;7.90;99.90;;;;;;5088396;28;20189;-49
2022/02/23 07:07:54;;;;;;;12.23;2.73;;;7.90;99.90;;;;;;5068112;28;20204;-45
2022/02/23 07:10:23;;;;;;;16.53;2.83;;;7.90;99.90;;;;;;5073666;28;20280;-47
2022/02/23 07:12:50;;;;;;;5.27;2.00;;;8.00;99.90;;;;;;5080980;28;20225;-44
2022/02/23 07:15:18;;;;;;;7.53;2.27;;;7.90;99.90;;;;;;5062180;28;20197;-48
2022/02/23 07:17:45;;;;;;;10.93;2.80;;;7.90;99.90;;;;;;5049485;28;20202;-46
2022/02/23 07:20:13;;;;;;;8.87;2.47;;;7.90;99.90;;;;;;5076491;28;20460;-50
2022/02/23 07:22:42;;;;;;;16.33;3.13;;;7.90;99.90;;;;;;5050905;28;20208;-47
2022/02/23 07:25:11;;;;;;;11.40;2.00;;;7.90;99.90;;;;;;5073483;28;20565;-48
2022/02/23 07:27:38;;;;;;;8.57;2.43;;;7.90;99.90;;;;;;5077500;28;20205;-45
2022/02/23 07:30:08;;;;;;;6.87;2.17;;;7.90;99.90;;;;;;5068793;28;20523;-51
2022/02/23 07:32:35;;;;;;;10.57;2.70;;;7.90;99.90;;;;;;5052620;28;20213;-50
2022/02/23 07:35:05;;;;;;;13.77;2.67;;;8.00;99.90;;;;;;5071896;28;20224;-47
2022/02/23 07:37:33;;;;;;;19.07;2.90;;;8.00;99.90;;;;;;5050159;28;20778;-46
2022/02/23 07:40:06;;;;;;;7.73;2.47;;;8.00;99.90;;;;;;5053571;28;20304;-50
2022/02/23 07:42:33;;;;;;;9.50;2.83;;;8.10;99.90;;;;;;5074311;28;20291;-52
2022/02/23 07:45:01;;;;;;;8.77;2.70;;;8.10;99.90;;;;;;5073543;28;20221;-51
2022/02/23 07:47:28;;;;;;;14.13;3.13;;;8.10;99.90;;;;;;5078644;28;20257;-49
2022/02/23 07:49:56;;;;;;;8.27;2.50;;;8.10;99.90;;;;;;5075114;28;20282;-49
2022/02/23 07:52:23;;;;;;;11.47;2.87;;;8.10;99.90;;;;;;5075068;28;20716;-51
2022/02/23 07:54:50;;;;;;;9.60;2.17;;;8.10;99.90;;;;;;5076202;28;20839;-47
2022/02/23 07:57:18;;;;;;;11.77;2.73;;;8.10;99.90;;;;;;5073125;28;20212;-48
2022/02/23 07:59:46;;;;;;;12.07;2.40;;;8.20;99.90;;;;;;5073197;28;20561;-46
2022/02/23 08:02:14;;;;;;;13.90;3.03;;;8.20;99.90;;;;;;5078301;28;20249;-48
2022/02/23 08:04:42;;;;;;;7.30;2.13;;;8.20;99.90;;;;;;5074339;28;20676;-45
2022/02/23 08:07:09;;;;;;;6.43;2.10;;;8.20;99.90;;;;;;5070311;28;20209;-49
2022/02/23 08:09:36;;;;;;;6.67;2.10;;;8.20;99.90;;;;;;5072103;28;20197;-51
2022/02/23 08:12:04;;;;;;;10.43;2.43;;;8.30;99.90;;;;;;5070400;28;20254;-48
2022/02/23 08:14:32;;;;;;;6.50;2.33;;;8.30;99.90;;;;;;5070357;28;20212;-50
2022/02/23 08:19:44;;;;;;;11.27;2.40;;;8.30;99.90;;;;;;5083801;28;20286;-44
2022/02/23 08:22:13;;;;;;;9.23;2.33;;;8.30;99.90;;;;;;5088959;28;20276;-46
2022/02/23 08:24:44;;;;;;;6.83;2.00;;;8.30;99.90;;;;;;5084707;28;20269;-45
2022/02/23 08:27:14;;;;;;;8.33;2.00;;;8.30;99.90;;;;;;5088686;28;20233;-48
2022/02/23 08:29:43;;;;;;;9.47;2.33;;;8.30;99.90;;;;;;5088766;28;20276;-51
2022/02/23 08:32:13;;;;;;;6.43;2.10;;;8.30;99.90;;;;;;5090811;28;20192;-47
2022/02/23 08:34:42;;;;;;;4.00;1.70;;;8.30;99.90;;;;;;5089603;28;20304;-51
2022/02/23 08:37:11;;;;;;;15.07;2.50;;;8.30;99.90;;;;;;5090056;28;20200;-45
2022/02/23 08:39:38;;;;;;;9.20;2.03;;;8.30;99.90;;;;;;5074100;28;20489;-46
2022/02/23 08:42:07;;;;;;;4.87;2.00;;;8.30;99.90;;;;;;5070638;28;20308;-47
2022/02/23 08:44:34;;;;;;;5.47;1.97;;;8.30;99.90;;;;;;5071535;28;20185;-47
2022/02/23 08:47:04;;;;;;;11.33;2.07;;;8.30;99.90;;;;;;5072271;28;20185;-47
2022/02/23 08:49:32;;;;;;;3.60;1.60;;;8.30;99.90;;;;;;5074001;28;20265;-50
2022/02/23 08:51:59;;;;;;;11.27;2.47;;;8.40;99.90;;;;;;5080345;28;20653;-47
2022/02/23 08:54:26;;;;;;;8.90;2.00;;;8.40;99.90;;;;;;5075815;28;20213;-46
2022/02/23 08:56:53;;;;;;;6.27;1.77;;;8.40;99.90;;;;;;5072334;28;20211;-49
2022/02/23 08:59:20;;;;;;;6.33;1.83;;;8.50;99.90;;;;;;5074750;28;20196;-48
2022/02/23 09:01:47;;;;;;;6.43;1.93;;;8.50;99.90;;;;;;5073356;28;20194;-51
2022/02/23 09:04:16;;;;;;;12.80;2.40;;;8.50;99.90;;;;;;5077910;28;20197;-48
2022/02/23 09:06:43;;;;;;;6.37;2.10;;;8.50;99.90;;;;;;5074225;28;20272;-50
2022/02/23 09:09:13;;;;;;;7.97;1.50;;;8.50;99.90;;;;;;5078643;28;20202;-48
2022/02/23 09:11:41;;;;;;;6.53;1.93;;;8.50;99.90;;;;;;5073428;28;20204;-53
2022/02/23 09:14:08;;;;;;;6.93;1.80;;;8.50;99.90;;;;;;5075304;28;20213;-50
2022/02/23 09:16:35;;;;;;;8.00;1.73;;;8.50;99.90;;;;;;5062376;28;20269;-51
2022/02/23 09:19:02;;;;;;;2.93;1.40;;;8.60;99.90;;;;;;5082670;28;20656;-52
2022/02/23 09:21:31;;;;;;;6.17;1.83;;;8.60;99.90;;;;;;5089721;28;20600;-53
2022/02/23 09:23:59;;;;;;;6.53;1.70;;;8.60;99.90;;;;;;5089087;28;20668;-50
2022/02/23 09:26:26;;;;;;;7.57;1.93;;;8.60;99.90;;;;;;5088301;28;20534;-54
2022/02/23 09:28:53;;;;;;;7.53;2.00;;;8.70;99.90;;;;;;5081963;28;20202;-52
2022/02/23 09:31:20;;;;;;;3.27;1.47;;;8.70;99.90;;;;;;5089269;28;20654;-52
2022/02/23 09:33:51;;;;;;;7.20;1.77;;;8.70;99.90;;;;;;5076290;28;20216;-53
2022/02/23 09:36:18;;;;;;;6.43;2.03;;;8.70;99.90;;;;;;5088472;28;20197;-49
2022/02/23 09:38:47;;;;;;;5.67;1.77;;;8.70;99.90;;;;;;5084224;28;20189;-52
2022/02/23 09:41:16;;;;;;;4.90;1.77;;;8.60;99.90;;;;;;5078038;28;20199;-53
2022/02/23 09:43:45;;;;;;;5.60;1.43;;;8.60;99.90;;;;;;5083145;28;20193;-53
2022/02/23 09:46:18;;;;;;;7.63;2.03;;;8.60;99.90;;;;;;5086685;28;20289;-49
2022/02/23 09:48:45;;;;;;;8.23;1.53;;;8.60;99.90;;;;;;5084317;28;20189;-52
2022/02/23 09:51:12;;;;;;;7.20;1.63;;;8.60;99.90;;;;;;5067358;28;20208;-53
2022/02/23 09:53:45;;;;;;;5.47;2.00;;;8.60;99.90;;;;;;5084645;28;20239;-50
2022/02/23 09:56:14;;;;;;;5.77;1.93;;;8.50;99.90;;;;;;5063834;28;20205;-53
2022/02/23 09:58:42;;;;;;;5.20;1.73;;;8.60;99.90;;;;;;5080782;28;20769;-53
2022/02/23 10:01:09;;;;;;;5.07;1.90;;;8.50;99.90;;;;;;5073855;28;20213;-51
2022/02/23 10:03:38;;;;;;;7.73;1.50;;;8.50;99.90;;;;;;5070723;28;20308;-49
2022/02/23 10:06:06;;;;;;;6.03;1.83;;;8.50;99.90;;;;;;5070650;28;20202;-49
2022/02/23 10:08:36;;;;;;;11.80;1.50;;;8.50;99.90;;;;;;5051672;28;20215;-50
2022/02/23 10:11:03;;;;;;;6.90;1.70;;;8.40;99.90;;;;;;5069504;28;20213;-52
2022/02/23 10:13:32;;;;;;;3.83;1.50;;;8.50;99.90;;;;;;5088222;28;20200;-52
2022/02/23 10:15:59;;;;;;;5.67;1.80;;;8.50;99.90;;;;;;5069440;28;20231;-54
2022/02/23 10:18:28;;;;;;;8.50;2.30;;;8.50;99.90;;;;;;5062324;28;20197;-50
2022/02/23 10:20:56;;;;;;;6.57;1.90;;;8.50;99.90;;;;;;5071060;28;20721;-49
2022/02/23 10:23:28;;;;;;;8.63;1.63;;;8.40;99.90;;;;;;5070337;28;20243;-48
2022/02/23 10:25:58;;;;;;;13.03;2.10;;;8.40;99.90;;;;;;5070429;28;20261;-52
2022/02/23 10:28:27;;;;;;;6.33;1.83;;;8.40;99.90;;;;;;5070589;28;20204;-53
2022/02/23 10:30:57;;;;;;;7.27;1.87;;;8.40;99.90;;;;;;5087498;28;20188;-52
2022/02/23 10:33:26;;;;;;;9.43;2.00;;;8.50;99.90;;;;;;5087474;28;20201;-51
2022/02/23 10:35:56;;;;;;;11.77;2.23;;;8.50;99.90;;;;;;5089223;28;20291;-55
2022/02/23 10:38:27;;;;;;;5.97;2.27;;;8.50;99.90;;;;;;5087862;28;20280;-51
2022/02/23 10:40:55;;;;;;;5.93;2.00;;;8.50;99.90;;;;;;5087285;28;20216;-51
2022/02/23 10:43:28;;;;;;;7.00;1.60;;;8.60;99.90;;;;;;5082810;28;20215;-52
2022/02/23 10:46:05;;;;;;;7.20;2.10;;;8.60;99.90;;;;;;5081127;28;20207;-48
2022/02/23 10:48:35;;;;;;;8.57;2.00;;;8.60;99.90;;;;;;5088327;28;20198;-51
2022/02/23 10:51:04;;;;;;;10.23;2.37;;;8.70;99.90;;;;;;5088766;28;20201;-52
2022/02/23 10:53:34;;;;;;;6.43;1.90;;;8.70;99.90;;;;;;5065782;28;20223;-50
2022/02/23 10:56:01;;;;;;;3.50;1.50;;;8.60;99.90;;;;;;5082265;28;20200;-51
2022/02/23 10:58:30;;;;;;;8.37;2.30;;;8.60;99.90;;;;;;5087625;28;20192;-53
2022/02/23 11:01:04;;;;;;;9.37;2.07;;;8.60;99.90;;;;;;5078763;28;20232;-53
2022/02/23 11:03:32;;;;;;;10.93;2.40;;;8.60;99.90;;;;;;5065203;28;20728;-54
2022/02/23 11:05:59;;;;;;;13.33;1.90;;;8.60;99.90;;;;;;5066963;28;20313;-50
2022/02/23 11:08:28;;;;;;;7.40;2.17;;;8.60;99.90;;;;;;5068255;28;20189;-47
2022/02/23 11:10:56;;;;;;;4.50;1.50;;;8.70;99.90;;;;;;5060902;28;20685;-45
2022/02/23 11:13:24;;;;;;;8.67;1.83;;;8.70;99.90;;;;;;5058705;28;20376;-50
2022/02/23 11:15:52;;;;;;;12.27;2.20;;;8.70;99.90;;;;;;5052753;28;20214;-48
2022/02/23 11:18:23;;;;;;;8.60;2.37;;;8.70;99.90;;;;;;5055188;28;20208;-49
2022/02/23 11:20:52;;;;;;;8.77;1.57;;;8.70;99.90;;;;;;5068066;28;20651;-50
2022/02/23 11:23:23;;;;;;;11.40;1.83;;;8.70;99.90;;;;;;5062719;28;20665;-50
2022/02/23 11:25:52;;;;;;;8.10;2.00;;;8.70;99.90;;;;;;5060886;28;20224;-51
2022/02/23 11:28:25;;;;;;;9.77;2.10;;;8.70;99.90;;;;;;5068548;28;20197;-52
2022/02/23 11:30:56;;;;;;;10.47;2.13;;;8.80;99.90;;;;;;5057041;28;20614;-52
2022/02/23 11:34:08;;;;;;;10.00;1.83;;;8.80;99.90;;;;;;5065002;28;20205;-49
2022/02/23 11:36:39;;;;;;;8.80;1.77;;;8.90;99.90;;;;;;5044471;28;20864;-47
2022/02/23 11:39:09;;;;;;;7.07;1.70;;;8.80;99.80;;;;;;5066738;28;20279;-51
2022/02/23 11:41:37;;;;;;;4.47;1.33;;;8.80;99.50;;;;;;5070167;28;20670;-51
2022/02/23 11:44:15;;;;;;;4.20;1.80;;;8.80;99.30;;;;;;5068873;28;20229;-50
2022/02/23 11:47:10;;;;;;;4.53;1.60;;;8.80;99.30;;;;;;5069890;28;20694;-51
2022/02/23 11:49:48;;;;;;;4.47;1.73;;;8.80;99.50;;;;;;5063964;28;20549;-50
2022/02/23 11:52:18;;;;;;;10.43;1.90;;;8.80;99.50;;;;;;5065630;28;20280;-51
2022/02/23 11:54:54;;;;;;;6.17;1.90;;;8.80;99.60;;;;;;5069678;28;20212;-49
2022/02/23 11:57:47;;;;;;;6.60;1.90;;;8.90;99.70;;;;;;5065897;28;20307;-48
2022/02/23 12:00:17;;;;;;;9.07;1.73;;;8.90;99.80;;;;;;5063262;28;20258;-51
2022/02/23 12:02:58;;;;;;;3.17;1.13;;;8.90;99.60;;;;;;5069276;28;20591;-51
2022/02/23 12:05:43;;;;;;;9.37;1.60;;;8.90;99.60;;;;;;5077739;28;20189;-50
2022/02/23 12:08:40;;;;;;;6.03;1.50;;;8.90;99.20;;;;;;5075263;28;20197;-51
2022/02/23 12:11:39;;;;;;;4.17;1.40;;;8.90;99.30;;;;;;5079386;28;20196;-52
2022/02/23 12:14:06;;;;;;;2.90;1.30;;;8.80;99.20;;;;;;5058851;28;20204;-52
2022/02/23 12:16:46;;;;;;;9.83;1.97;;;8.80;99.20;;;;;;5090784;28;20254;-50
2022/02/23 12:19:13;;;;;;;4.20;1.40;;;8.80;99.30;;;;;;5078479;28;20203;-52
2022/02/23 12:21:43;;;;;;;11.83;2.00;;;8.90;99.40;;;;;;5090628;28;20205;-53
2022/02/23 12:24:15;;;;;;;6.77;1.70;;;8.90;99.50;;;;;;5070591;28;20204;-52
2022/02/23 12:26:43;;;;;;;7.17;1.83;;;8.90;99.40;;;;;;5089110;28;20196;-50
2022/02/23 12:29:11;;;;;;;3.33;1.40;;;8.90;99.20;;;;;;5070484;28;20212;-47
2022/02/23 12:31:44;;;;;;;7.60;1.77;;;8.90;99.10;;;;;;5090254;28;20284;-50
2022/02/23 12:34:15;;;;;;;5.07;1.73;;;8.90;99.20;;;;;;5089731;28;20266;-54
2022/02/23 12:36:48;;;;;;;6.27;1.90;;;8.90;99.30;;;;;;5089144;28;20687;-48
2022/02/23 12:39:18;;;;;;;7.57;1.90;;;9.00;99.40;;;;;;5068569;28;20683;-50
2022/02/23 12:41:48;;;;;;;6.90;1.90;;;9.00;99.10;;;;;;5086955;28;20691;-53
2022/02/23 12:44:17;;;;;;;5.77;1.63;;;9.00;99.20;;;;;;5089432;28;20204;-52
2022/02/23 12:46:47;;;;;;;5.97;1.37;;;9.00;99.00;;;;;;5086494;28;20193;-48
2022/02/23 12:49:15;;;;;;;2.77;1.50;;;9.00;98.90;;;;;;5089647;28;20568;-52
2022/02/23 12:51:45;;;;;;;7.70;1.77;;;8.90;98.90;;;;;;5080193;28;20507;-52
2022/02/23 12:54:14;;;;;;;5.50;1.53;;;8.90;99.00;;;;;;5088216;28;20564;-53
2022/02/23 12:56:43;;;;;;;5.27;1.50;;;9.00;99.10;;;;;;5084860;28;20201;-51
2022/02/23 12:59:13;;;;;;;8.80;1.60;;;9.00;99.10;;;;;;5087897;28;20978;-52
2022/02/23 13:01:42;;;;;;;5.67;1.90;;;9.00;99.20;;;;;;5087095;28;20194;-51
2022/02/23 13:04:11;;;;;;;5.30;1.10;;;9.00;99.30;;;;;;5086782;28;20349;-51
2022/02/23 13:06:41;;;;;;;8.33;1.60;;;9.00;99.20;;;;;;5084658;28;20558;-52
2022/02/23 13:09:12;;;;;;;7.23;1.63;;;9.00;99.10;;;;;;5087665;28;20201;-48
2022/02/23 13:11:45;;;;;;;8.87;2.00;;;9.00;98.90;;;;;;5062128;28;20303;-55
2022/02/23 13:14:14;;;;;;;3.53;1.13;;;9.00;98.90;;;;;;5072485;28;20664;-49
2022/02/23 13:16:45;;;;;;;4.30;1.40;;;9.00;98.80;;;;;;5061558;28;20559;-52
2022/02/23 13:19:14;;;;;;;6.83;1.80;;;8.90;98.60;;;;;;5085706;28;20199;-49
2022/02/23 13:21:48;;;;;;;3.67;1.40;;;9.00;98.60;;;;;;5079219;28;20217;-51
2022/02/23 13:24:19;;;;;;;5.00;1.50;;;9.00;98.80;;;;;;5071778;28;20593;-50
2022/02/23 13:26:49;;;;;;;6.77;1.43;;;9.40;98.80;;;;;;5069558;28;20240;-52
2022/02/23 13:29:18;;;;;;;3.20;1.20;;;9.60;98.40;;;;;;5070895;28;20199;-52
2022/02/23 13:31:47;;;;;;;4.00;1.20;;;9.70;98.10;;;;;;5072143;28;20248;-48
2022/02/23 13:34:30;;;;;;;1.80;0.90;;;9.70;98.00;;;;;;5078623;28;20236;-49
2022/02/23 13:37:01;;;;;;;5.37;1.50;;;9.70;98.10;;;;;;5076463;28;20194;-49
2022/02/23 13:39:31;;;;;;;2.87;1.40;;;9.70;97.80;;;;;;5089376;28;20199;-50
2022/02/23 13:42:02;;;;;;;5.53;1.57;;;9.60;97.80;;;;;;5087750;28;20230;-52
2022/02/23 13:44:32;;;;;;;5.47;1.53;;;9.60;97.90;;;;;;5061976;28;20218;-51
2022/02/23 13:47:08;;;;;;;4.57;1.47;;;9.50;97.70;;;;;;5070150;28;20206;-49
2022/02/23 13:49:53;;;;;;;2.33;1.13;;;9.50;97.80;;;;;;5089462;28;20560;-47